sensor_id;sensor_type;location;lat;lon;timestamp;P1;durP1;ratioP1;P2;durP2;ratioP2
77409;SDS011;66481;51.332;22.804;2023-05-10T00:01:17;8.32;;;4.20;;
77409;SDS011;66481;51.332;22.804;2023-05-10T00:05:18;6.63;;;3.50;;
77409;SDS011;66481;51.332;22.804;2023-05-10T00:09:19;7.10;;;3.80;;
77409;SDS011;66481;51.332;22.804;2023-05-10T00:13:20;7.90;;;3.35;;
77409;SDS011;66481;51.332;22.804;2023-05-10T00:17:24;6.35;;;3.45;;
77409;SDS011;66481;51.332;22.804;2023-05-10T00:21:25;7.82;;;3.60;;
77409;SDS011;66481;51.332;22.804;2023-05-10T00:25:26;9.88;;;3.85;;
77409;SDS011;66481;51.332;22.804;2023-05-10T00:29:27;6.18;;;3.55;;
77409;SDS011;66481;51.332;22.804;2023-05-10T00:33:28;6.28;;;3.75;;
77409;SDS011;66481;51.332;22.804;2023-05-10T00:37:29;6.97;;;3.63;;
77409;SDS011;66481;51.332;22.804;2023-05-10T00:41:31;8.52;;;3.67;;
77409;SDS011;66481;51.332;22.804;2023-05-10T00:45:33;7.60;;;3.50;;
77409;SDS011;66481;51.332;22.804;2023-05-10T00:49:37;4.50;;;3.00;;
77409;SDS011;66481;51.332;22.804;2023-05-10T00:53:38;6.60;;;3.53;;
77409;SDS011;66481;51.332;22.804;2023-05-10T00:57:39;6.30;;;3.38;;
77409;SDS011;66481;51.332;22.804;2023-05-10T01:01:40;5.90;;;3.67;;
77409;SDS011;66481;51.332;22.804;2023-05-10T01:05:41;5.07;;;3.50;;
77409;SDS011;66481;51.332;22.804;2023-05-10T01:09:42;7.30;;;3.60;;
77409;SDS011;66481;51.332;22.804;2023-05-10T01:13:43;4.45;;;2.60;;
77409;SDS011;66481;51.332;22.804;2023-05-10T01:17:51;4.47;;;3.50;;
77409;SDS011;66481;51.332;22.804;2023-05-10T01:44:54;8.68;;;3.42;;
77409;SDS011;66481;51.332;22.804;2023-05-10T01:49:03;6.13;;;3.70;;
77409;SDS011;66481;51.332;22.804;2023-05-10T01:53:09;7.35;;;3.50;;
77409;SDS011;66481;51.332;22.804;2023-05-10T01:57:12;6.38;;;3.42;;
77409;SDS011;66481;51.332;22.804;2023-05-10T02:01:15;5.13;;;3.50;;
77409;SDS011;66481;51.332;22.804;2023-05-10T02:05:16;6.32;;;3.50;;
77409;SDS011;66481;51.332;22.804;2023-05-10T02:09:19;5.75;;;3.47;;
77409;SDS011;66481;51.332;22.804;2023-05-10T02:13:23;6.20;;;3.33;;
77409;SDS011;66481;51.332;22.804;2023-05-10T02:17:24;6.15;;;3.42;;
77409;SDS011;66481;51.332;22.804;2023-05-10T02:21:27;6.00;;;3.47;;
77409;SDS011;66481;51.332;22.804;2023-05-10T02:25:30;7.88;;;3.83;;
77409;SDS011;66481;51.332;22.804;2023-05-10T02:29:33;6.43;;;3.20;;
77409;SDS011;66481;51.332;22.804;2023-05-10T02:33:37;6.82;;;3.33;;
77409;SDS011;66481;51.332;22.804;2023-05-10T02:37:40;5.63;;;3.10;;
77409;SDS011;66481;51.332;22.804;2023-05-10T02:41:42;4.40;;;2.80;;
77409;SDS011;66481;51.332;22.804;2023-05-10T02:45:46;6.70;;;3.58;;
77409;SDS011;66481;51.332;22.804;2023-05-10T02:49:48;8.20;;;3.53;;
77409;SDS011;66481;51.332;22.804;2023-05-10T02:53:49;8.30;;;3.47;;
77409;SDS011;66481;51.332;22.804;2023-05-10T02:57:55;12.13;;;4.43;;
77409;SDS011;66481;51.332;22.804;2023-05-10T03:01:59;10.30;;;4.35;;
77409;SDS011;66481;51.332;22.804;2023-05-10T03:06:01;8.88;;;3.97;;
77409;SDS011;66481;51.332;22.804;2023-05-10T03:10:02;10.75;;;4.03;;
77409;SDS011;66481;51.332;22.804;2023-05-10T03:14:16;9.48;;;4.43;;
77409;SDS011;66481;51.332;22.804;2023-05-10T03:18:31;8.88;;;3.97;;
77409;SDS011;66481;51.332;22.804;2023-05-10T03:22:44;8.10;;;4.05;;
77409;SDS011;66481;51.332;22.804;2023-05-10T03:26:48;9.05;;;3.75;;
77409;SDS011;66481;51.332;22.804;2023-05-10T03:30:50;7.50;;;4.10;;
77409;SDS011;66481;51.332;22.804;2023-05-10T03:34:54;7.20;;;3.13;;
77409;SDS011;66481;51.332;22.804;2023-05-10T03:38:55;8.43;;;3.50;;
77409;SDS011;66481;51.332;22.804;2023-05-10T03:42:56;5.20;;;3.28;;
77409;SDS011;66481;51.332;22.804;2023-05-10T03:46:57;8.40;;;3.45;;
77409;SDS011;66481;51.332;22.804;2023-05-10T03:51:00;11.82;;;4.40;;
77409;SDS011;66481;51.332;22.804;2023-05-10T03:55:02;7.18;;;3.85;;
77409;SDS011;66481;51.332;22.804;2023-05-10T03:59:04;5.20;;;2.92;;
77409;SDS011;66481;51.332;22.804;2023-05-10T04:03:08;7.00;;;3.75;;
77409;SDS011;66481;51.332;22.804;2023-05-10T04:07:09;7.22;;;3.53;;
77409;SDS011;66481;51.332;22.804;2023-05-10T04:11:11;4.63;;;3.08;;
77409;SDS011;66481;51.332;22.804;2023-05-10T04:15:13;5.82;;;3.47;;
77409;SDS011;66481;51.332;22.804;2023-05-10T04:19:14;5.20;;;3.80;;
77409;SDS011;66481;51.332;22.804;2023-05-10T04:23:15;7.43;;;3.38;;
77409;SDS011;66481;51.332;22.804;2023-05-10T04:27:17;5.53;;;2.78;;
77409;SDS011;66481;51.332;22.804;2023-05-10T04:31:18;5.10;;;3.42;;
77409;SDS011;66481;51.332;22.804;2023-05-10T04:35:19;5.05;;;3.20;;
77409;SDS011;66481;51.332;22.804;2023-05-10T04:39:20;4.68;;;3.08;;
77409;SDS011;66481;51.332;22.804;2023-05-10T04:43:20;4.03;;;2.88;;
77409;SDS011;66481;51.332;22.804;2023-05-10T04:47:21;5.15;;;3.22;;
77409;SDS011;66481;51.332;22.804;2023-05-10T04:51:22;6.30;;;3.55;;
77409;SDS011;66481;51.332;22.804;2023-05-10T04:55:23;5.88;;;3.53;;
77409;SDS011;66481;51.332;22.804;2023-05-10T04:59:24;4.20;;;2.80;;
77409;SDS011;66481;51.332;22.804;2023-05-10T05:03:25;4.32;;;3.10;;
77409;SDS011;66481;51.332;22.804;2023-05-10T05:07:26;4.72;;;3.38;;
77409;SDS011;66481;51.332;22.804;2023-05-10T05:11:27;8.93;;;3.47;;
77409;SDS011;66481;51.332;22.804;2023-05-10T05:15:28;19.55;;;6.28;;
77409;SDS011;66481;51.332;22.804;2023-05-10T05:19:31;5.93;;;3.80;;
77409;SDS011;66481;51.332;22.804;2023-05-10T05:23:32;5.22;;;3.15;;
77409;SDS011;66481;51.332;22.804;2023-05-10T05:27:33;7.72;;;3.35;;
77409;SDS011;66481;51.332;22.804;2023-05-10T05:31:34;6.13;;;3.30;;
77409;SDS011;66481;51.332;22.804;2023-05-10T05:35:35;9.38;;;3.20;;
77409;SDS011;66481;51.332;22.804;2023-05-10T05:39:36;5.88;;;2.65;;
77409;SDS011;66481;51.332;22.804;2023-05-10T05:43:37;7.00;;;3.10;;
77409;SDS011;66481;51.332;22.804;2023-05-10T05:47:39;4.65;;;3.03;;
77409;SDS011;66481;51.332;22.804;2023-05-10T05:51:40;5.28;;;3.30;;
77409;SDS011;66481;51.332;22.804;2023-05-10T05:55:50;8.07;;;4.15;;
77409;SDS011;66481;51.332;22.804;2023-05-10T05:59:52;5.45;;;3.45;;
77409;SDS011;66481;51.332;22.804;2023-05-10T06:03:53;5.22;;;3.58;;
77409;SDS011;66481;51.332;22.804;2023-05-10T06:07:54;5.78;;;3.53;;
77409;SDS011;66481;51.332;22.804;2023-05-10T06:11:55;4.68;;;3.45;;
77409;SDS011;66481;51.332;22.804;2023-05-10T06:15:57;5.20;;;3.55;;
77409;SDS011;66481;51.332;22.804;2023-05-10T06:19:59;5.35;;;3.45;;
77409;SDS011;66481;51.332;22.804;2023-05-10T06:24:00;5.57;;;3.60;;
77409;SDS011;66481;51.332;22.804;2023-05-10T06:28:01;6.00;;;3.20;;
77409;SDS011;66481;51.332;22.804;2023-05-10T06:32:02;5.78;;;3.53;;
77409;SDS011;66481;51.332;22.804;2023-05-10T06:36:03;5.65;;;3.28;;
77409;SDS011;66481;51.332;22.804;2023-05-10T06:40:06;7.65;;;4.20;;
77409;SDS011;66481;51.332;22.804;2023-05-10T06:44:07;5.32;;;3.40;;
77409;SDS011;66481;51.332;22.804;2023-05-10T06:48:09;8.13;;;3.30;;
77409;SDS011;66481;51.332;22.804;2023-05-10T06:52:11;9.57;;;3.40;;
77409;SDS011;66481;51.332;22.804;2023-05-10T06:56:15;6.80;;;3.17;;
77409;SDS011;66481;51.332;22.804;2023-05-10T07:00:17;11.43;;;3.60;;
77409;SDS011;66481;51.332;22.804;2023-05-10T07:04:19;8.52;;;3.38;;
77409;SDS011;66481;51.332;22.804;2023-05-10T07:08:20;4.88;;;2.90;;
77409;SDS011;66481;51.332;22.804;2023-05-10T07:12:21;7.55;;;3.40;;
77409;SDS011;66481;51.332;22.804;2023-05-10T07:16:22;6.78;;;3.13;;
77409;SDS011;66481;51.332;22.804;2023-05-10T07:20:26;8.63;;;2.78;;
77409;SDS011;66481;51.332;22.804;2023-05-10T07:24:27;4.50;;;2.70;;
77409;SDS011;66481;51.332;22.804;2023-05-10T07:28:28;6.25;;;2.80;;
77409;SDS011;66481;51.332;22.804;2023-05-10T07:32:29;3.40;;;2.30;;
77409;SDS011;66481;51.332;22.804;2023-05-10T07:36:31;4.07;;;3.00;;
77409;SDS011;66481;51.332;22.804;2023-05-10T07:40:32;4.38;;;2.85;;
77409;SDS011;66481;51.332;22.804;2023-05-10T07:44:33;3.22;;;2.28;;
77409;SDS011;66481;51.332;22.804;2023-05-10T07:48:34;5.13;;;2.45;;
77409;SDS011;66481;51.332;22.804;2023-05-10T07:52:35;4.55;;;2.30;;
77409;SDS011;66481;51.332;22.804;2023-05-10T07:56:36;3.40;;;1.95;;
77409;SDS011;66481;51.332;22.804;2023-05-10T08:00:37;4.50;;;2.30;;
77409;SDS011;66481;51.332;22.804;2023-05-10T08:04:41;3.33;;;2.10;;
77409;SDS011;66481;51.332;22.804;2023-05-10T08:08:41;3.72;;;2.30;;
77409;SDS011;66481;51.332;22.804;2023-05-10T08:12:42;3.00;;;1.90;;
77409;SDS011;66481;51.332;22.804;2023-05-10T08:16:43;4.65;;;2.33;;
77409;SDS011;66481;51.332;22.804;2023-05-10T08:20:45;4.65;;;1.98;;
77409;SDS011;66481;51.332;22.804;2023-05-10T08:24:46;4.03;;;2.30;;
77409;SDS011;66481;51.332;22.804;2023-05-10T08:28:47;3.28;;;1.88;;
77409;SDS011;66481;51.332;22.804;2023-05-10T08:32:48;4.00;;;2.17;;
77409;SDS011;66481;51.332;22.804;2023-05-10T08:36:49;2.92;;;2.00;;
77409;SDS011;66481;51.332;22.804;2023-05-10T08:40:50;3.10;;;2.10;;
77409;SDS011;66481;51.332;22.804;2023-05-10T08:44:56;3.78;;;2.15;;
77409;SDS011;66481;51.332;22.804;2023-05-10T08:48:59;3.92;;;2.30;;
77409;SDS011;66481;51.332;22.804;2023-05-10T08:53:11;5.07;;;2.22;;
77409;SDS011;66481;51.332;22.804;2023-05-10T08:57:13;4.63;;;2.08;;
77409;SDS011;66481;51.332;22.804;2023-05-10T09:01:14;3.03;;;1.92;;
77409;SDS011;66481;51.332;22.804;2023-05-10T09:05:18;4.15;;;2.40;;
77409;SDS011;66481;51.332;22.804;2023-05-10T09:09:19;2.80;;;2.05;;
77409;SDS011;66481;51.332;22.804;2023-05-10T09:13:22;3.65;;;2.60;;
77409;SDS011;66481;51.332;22.804;2023-05-10T09:17:24;7.07;;;2.85;;
77409;SDS011;66481;51.332;22.804;2023-05-10T09:21:26;4.13;;;2.13;;
77409;SDS011;66481;51.332;22.804;2023-05-10T09:25:27;4.50;;;2.47;;
77409;SDS011;66481;51.332;22.804;2023-05-10T09:29:38;3.55;;;2.08;;
77409;SDS011;66481;51.332;22.804;2023-05-10T09:33:43;3.40;;;2.22;;
77409;SDS011;66481;51.332;22.804;2023-05-10T09:37:47;3.72;;;1.90;;
77409;SDS011;66481;51.332;22.804;2023-05-10T09:41:54;3.97;;;2.08;;
77409;SDS011;66481;51.332;22.804;2023-05-10T09:45:55;3.97;;;2.25;;
77409;SDS011;66481;51.332;22.804;2023-05-10T09:49:57;4.00;;;2.30;;
77409;SDS011;66481;51.332;22.804;2023-05-10T09:54:13;4.03;;;2.03;;
77409;SDS011;66481;51.332;22.804;2023-05-10T09:58:15;2.53;;;1.63;;
77409;SDS011;66481;51.332;22.804;2023-05-10T10:02:16;3.72;;;1.70;;
77409;SDS011;66481;51.332;22.804;2023-05-10T10:10:21;3.53;;;1.77;;
77409;SDS011;66481;51.332;22.804;2023-05-10T10:14:22;3.15;;;2.13;;
77409;SDS011;66481;51.332;22.804;2023-05-10T10:18:24;3.78;;;2.20;;
77409;SDS011;66481;51.332;22.804;2023-05-10T10:22:27;3.53;;;2.05;;
77409;SDS011;66481;51.332;22.804;2023-05-10T10:26:28;3.35;;;1.30;;
77409;SDS011;66481;51.332;22.804;2023-05-10T10:30:44;4.38;;;2.28;;
77409;SDS011;66481;51.332;22.804;2023-05-10T10:34:49;2.67;;;1.88;;
77409;SDS011;66481;51.332;22.804;2023-05-10T10:39:00;3.70;;;1.77;;
77409;SDS011;66481;51.332;22.804;2023-05-10T10:43:21;4.82;;;2.00;;
77409;SDS011;66481;51.332;22.804;2023-05-10T10:47:28;5.10;;;2.00;;
77409;SDS011;66481;51.332;22.804;2023-05-10T10:51:31;2.95;;;1.85;;
77409;SDS011;66481;51.332;22.804;2023-05-10T10:55:32;3.22;;;1.60;;
77409;SDS011;66481;51.332;22.804;2023-05-10T10:59:33;3.45;;;1.90;;
77409;SDS011;66481;51.332;22.804;2023-05-10T11:03:34;4.30;;;1.85;;
77409;SDS011;66481;51.332;22.804;2023-05-10T11:07:35;3.63;;;1.92;;
77409;SDS011;66481;51.332;22.804;2023-05-10T11:11:36;4.43;;;1.98;;
77409;SDS011;66481;51.332;22.804;2023-05-10T11:15:49;3.63;;;1.98;;
77409;SDS011;66481;51.332;22.804;2023-05-10T11:20:09;2.30;;;1.88;;
77409;SDS011;66481;51.332;22.804;2023-05-10T11:24:15;1.73;;;1.50;;
77409;SDS011;66481;51.332;22.804;2023-05-10T11:28:17;2.53;;;1.80;;
77409;SDS011;66481;51.332;22.804;2023-05-10T11:32:20;2.13;;;1.92;;
77409;SDS011;66481;51.332;22.804;2023-05-10T11:36:22;3.67;;;1.88;;
77409;SDS011;66481;51.332;22.804;2023-05-10T11:40:26;4.32;;;1.70;;
77409;SDS011;66481;51.332;22.804;2023-05-10T11:44:31;3.08;;;1.83;;
77409;SDS011;66481;51.332;22.804;2023-05-10T11:48:32;2.70;;;1.80;;
77409;SDS011;66481;51.332;22.804;2023-05-10T11:52:36;4.05;;;1.88;;
77409;SDS011;66481;51.332;22.804;2023-05-10T11:56:40;2.80;;;1.55;;
77409;SDS011;66481;51.332;22.804;2023-05-10T12:00:41;3.17;;;2.00;;
77409;SDS011;66481;51.332;22.804;2023-05-10T12:04:42;2.58;;;1.85;;
77409;SDS011;66481;51.332;22.804;2023-05-10T12:08:44;2.47;;;1.63;;
77409;SDS011;66481;51.332;22.804;2023-05-10T12:12:53;3.10;;;1.50;;
77409;SDS011;66481;51.332;22.804;2023-05-10T12:16:56;3.35;;;1.55;;
77409;SDS011;66481;51.332;22.804;2023-05-10T12:21:02;3.03;;;1.95;;
77409;SDS011;66481;51.332;22.804;2023-05-10T12:25:04;3.53;;;2.20;;
77409;SDS011;66481;51.332;22.804;2023-05-10T12:29:15;2.67;;;1.70;;
77409;SDS011;66481;51.332;22.804;2023-05-10T12:33:18;2.45;;;1.85;;
77409;SDS011;66481;51.332;22.804;2023-05-10T12:37:23;3.70;;;1.50;;
77409;SDS011;66481;51.332;22.804;2023-05-10T12:41:24;2.38;;;1.50;;
77409;SDS011;66481;51.332;22.804;2023-05-10T12:45:25;3.53;;;1.88;;
77409;SDS011;66481;51.332;22.804;2023-05-10T12:49:26;3.67;;;1.70;;
77409;SDS011;66481;51.332;22.804;2023-05-10T12:53:27;2.53;;;1.52;;
77409;SDS011;66481;51.332;22.804;2023-05-10T12:57:28;2.25;;;1.50;;
77409;SDS011;66481;51.332;22.804;2023-05-10T13:01:29;2.65;;;1.70;;
77409;SDS011;66481;51.332;22.804;2023-05-10T13:05:33;2.78;;;1.42;;
77409;SDS011;66481;51.332;22.804;2023-05-10T13:09:34;3.85;;;1.80;;
77409;SDS011;66481;51.332;22.804;2023-05-10T13:13:36;4.40;;;1.70;;
77409;SDS011;66481;51.332;22.804;2023-05-10T13:17:37;3.58;;;1.75;;
77409;SDS011;66481;51.332;22.804;2023-05-10T13:21:39;3.70;;;2.08;;
77409;SDS011;66481;51.332;22.804;2023-05-10T13:25:45;5.10;;;3.75;;
77409;SDS011;66481;51.332;22.804;2023-05-10T13:29:46;4.72;;;2.53;;
77409;SDS011;66481;51.332;22.804;2023-05-10T13:33:47;2.67;;;1.70;;
77409;SDS011;66481;51.332;22.804;2023-05-10T13:37:48;3.05;;;1.70;;
77409;SDS011;66481;51.332;22.804;2023-05-10T13:41:50;4.18;;;2.00;;
77409;SDS011;66481;51.332;22.804;2023-05-10T13:45:51;2.78;;;1.63;;
77409;SDS011;66481;51.332;22.804;2023-05-10T13:49:52;3.92;;;1.60;;
77409;SDS011;66481;51.332;22.804;2023-05-10T13:53:54;3.33;;;1.65;;
77409;SDS011;66481;51.332;22.804;2023-05-10T13:57:55;2.10;;;1.42;;
77409;SDS011;66481;51.332;22.804;2023-05-10T14:01:56;2.17;;;1.60;;
77409;SDS011;66481;51.332;22.804;2023-05-10T14:05:57;2.83;;;2.00;;
77409;SDS011;66481;51.332;22.804;2023-05-10T14:09:58;3.50;;;1.70;;
77409;SDS011;66481;51.332;22.804;2023-05-10T14:13:59;3.78;;;2.92;;
77409;SDS011;66481;51.332;22.804;2023-05-10T14:18:00;3.25;;;1.67;;
77409;SDS011;66481;51.332;22.804;2023-05-10T14:22:02;2.03;;;1.42;;
77409;SDS011;66481;51.332;22.804;2023-05-10T14:26:03;3.67;;;2.00;;
77409;SDS011;66481;51.332;22.804;2023-05-10T14:30:04;3.75;;;2.05;;
77409;SDS011;66481;51.332;22.804;2023-05-10T14:34:05;2.97;;;1.60;;
77409;SDS011;66481;51.332;22.804;2023-05-10T14:38:07;2.72;;;1.75;;
77409;SDS011;66481;51.332;22.804;2023-05-10T14:42:08;2.47;;;1.75;;
77409;SDS011;66481;51.332;22.804;2023-05-10T14:46:09;2.28;;;1.73;;
77409;SDS011;66481;51.332;22.804;2023-05-10T14:50:10;2.13;;;1.60;;
77409;SDS011;66481;51.332;22.804;2023-05-10T14:54:12;3.03;;;1.70;;
77409;SDS011;66481;51.332;22.804;2023-05-10T14:58:12;2.80;;;1.70;;
77409;SDS011;66481;51.332;22.804;2023-05-10T15:02:13;2.42;;;1.85;;
77409;SDS011;66481;51.332;22.804;2023-05-10T15:06:15;4.75;;;1.85;;
77409;SDS011;66481;51.332;22.804;2023-05-10T15:10:17;2.58;;;1.50;;
77409;SDS011;66481;51.332;22.804;2023-05-10T15:14:18;3.00;;;2.25;;
77409;SDS011;66481;51.332;22.804;2023-05-10T15:18:19;3.20;;;1.70;;
77409;SDS011;66481;51.332;22.804;2023-05-10T15:22:20;3.67;;;1.88;;
77409;SDS011;66481;51.332;22.804;2023-05-10T15:26:21;5.32;;;2.10;;
77409;SDS011;66481;51.332;22.804;2023-05-10T15:30:23;2.72;;;1.70;;
77409;SDS011;66481;51.332;22.804;2023-05-10T15:34:24;54.13;;;13.13;;
77409;SDS011;66481;51.332;22.804;2023-05-10T15:38:25;56.78;;;16.17;;
77409;SDS011;66481;51.332;22.804;2023-05-10T15:42:27;27.90;;;9.50;;
77409;SDS011;66481;51.332;22.804;2023-05-10T15:46:29;10.27;;;4.53;;
77409;SDS011;66481;51.332;22.804;2023-05-10T15:50:30;4.20;;;2.25;;
77409;SDS011;66481;51.332;22.804;2023-05-10T15:54:32;2.70;;;2.00;;
77409;SDS011;66481;51.332;22.804;2023-05-10T15:58:34;2.90;;;2.25;;
77409;SDS011;66481;51.332;22.804;2023-05-10T16:02:35;1.98;;;1.48;;
77409;SDS011;66481;51.332;22.804;2023-05-10T16:06:37;2.53;;;1.60;;
77409;SDS011;66481;51.332;22.804;2023-05-10T16:10:41;3.28;;;1.58;;
77409;SDS011;66481;51.332;22.804;2023-05-10T16:14:43;4.97;;;2.08;;
77409;SDS011;66481;51.332;22.804;2023-05-10T16:18:44;4.68;;;1.98;;
77409;SDS011;66481;51.332;22.804;2023-05-10T16:22:45;2.85;;;1.60;;
77409;SDS011;66481;51.332;22.804;2023-05-10T16:26:47;4.00;;;1.52;;
77409;SDS011;66481;51.332;22.804;2023-05-10T16:30:48;5.32;;;1.70;;
77409;SDS011;66481;51.332;22.804;2023-05-10T16:34:50;3.15;;;2.13;;
77409;SDS011;66481;51.332;22.804;2023-05-10T16:38:53;4.38;;;1.83;;
77409;SDS011;66481;51.332;22.804;2023-05-10T16:46:57;6.25;;;2.35;;
77409;SDS011;66481;51.332;22.804;2023-05-10T16:50:58;2.97;;;1.77;;
77409;SDS011;66481;51.332;22.804;2023-05-10T16:55:00;3.15;;;2.10;;
77409;SDS011;66481;51.332;22.804;2023-05-10T16:59:01;3.80;;;1.70;;
77409;SDS011;66481;51.332;22.804;2023-05-10T17:03:02;4.25;;;2.05;;
77409;SDS011;66481;51.332;22.804;2023-05-10T17:07:03;3.42;;;2.20;;
77409;SDS011;66481;51.332;22.804;2023-05-10T17:11:05;4.43;;;2.20;;
77409;SDS011;66481;51.332;22.804;2023-05-10T17:15:06;4.70;;;2.50;;
77409;SDS011;66481;51.332;22.804;2023-05-10T17:19:08;4.22;;;2.40;;
77409;SDS011;66481;51.332;22.804;2023-05-10T17:23:09;4.85;;;2.85;;
77409;SDS011;66481;51.332;22.804;2023-05-10T17:32:26;6.25;;;3.08;;
77409;SDS011;66481;51.332;22.804;2023-05-10T17:36:27;4.25;;;2.33;;
77409;SDS011;66481;51.332;22.804;2023-05-10T17:40:28;3.50;;;1.98;;
77409;SDS011;66481;51.332;22.804;2023-05-10T17:44:29;6.75;;;2.28;;
77409;SDS011;66481;51.332;22.804;2023-05-10T17:48:31;6.30;;;2.75;;
77409;SDS011;66481;51.332;22.804;2023-05-10T17:52:33;7.80;;;3.22;;
77409;SDS011;66481;51.332;22.804;2023-05-10T17:56:34;9.52;;;5.40;;
77409;SDS011;66481;51.332;22.804;2023-05-10T18:00:36;9.00;;;3.63;;
77409;SDS011;66481;51.332;22.804;2023-05-10T18:04:39;6.47;;;2.88;;
77409;SDS011;66481;51.332;22.804;2023-05-10T18:08:40;6.93;;;2.65;;
77409;SDS011;66481;51.332;22.804;2023-05-10T18:12:41;4.93;;;2.35;;
77409;SDS011;66481;51.332;22.804;2023-05-10T18:16:43;4.28;;;2.58;;
77409;SDS011;66481;51.332;22.804;2023-05-10T18:20:44;4.88;;;3.05;;
77409;SDS011;66481;51.332;22.804;2023-05-10T18:24:46;9.82;;;4.15;;
77409;SDS011;66481;51.332;22.804;2023-05-10T18:28:47;10.30;;;4.30;;
77409;SDS011;66481;51.332;22.804;2023-05-10T18:32:48;11.98;;;5.72;;
77409;SDS011;66481;51.332;22.804;2023-05-10T18:36:49;7.35;;;3.80;;
77409;SDS011;66481;51.332;22.804;2023-05-10T18:40:52;8.57;;;3.88;;
77409;SDS011;66481;51.332;22.804;2023-05-10T18:44:53;7.72;;;4.10;;
77409;SDS011;66481;51.332;22.804;2023-05-10T18:48:55;7.97;;;4.05;;
77409;SDS011;66481;51.332;22.804;2023-05-10T18:52:57;10.38;;;4.95;;
77409;SDS011;66481;51.332;22.804;2023-05-10T18:56:58;9.70;;;4.65;;
77409;SDS011;66481;51.332;22.804;2023-05-10T19:00:59;10.20;;;4.53;;
77409;SDS011;66481;51.332;22.804;2023-05-10T19:05:00;9.38;;;5.00;;
77409;SDS011;66481;51.332;22.804;2023-05-10T19:09:01;10.63;;;5.18;;
77409;SDS011;66481;51.332;22.804;2023-05-10T19:13:03;7.88;;;4.90;;
77409;SDS011;66481;51.332;22.804;2023-05-10T19:17:05;7.15;;;4.47;;
77409;SDS011;66481;51.332;22.804;2023-05-10T19:21:06;8.43;;;4.15;;
77409;SDS011;66481;51.332;22.804;2023-05-10T19:25:08;9.00;;;5.22;;
77409;SDS011;66481;51.332;22.804;2023-05-10T19:29:11;8.48;;;4.43;;
77409;SDS011;66481;51.332;22.804;2023-05-10T19:33:16;8.77;;;4.20;;
77409;SDS011;66481;51.332;22.804;2023-05-10T19:37:18;8.70;;;4.90;;
77409;SDS011;66481;51.332;22.804;2023-05-10T19:41:19;9.23;;;5.10;;
77409;SDS011;66481;51.332;22.804;2023-05-10T19:45:21;11.80;;;4.20;;
77409;SDS011;66481;51.332;22.804;2023-05-10T19:49:23;6.63;;;3.70;;
77409;SDS011;66481;51.332;22.804;2023-05-10T19:53:24;8.52;;;3.60;;
77409;SDS011;66481;51.332;22.804;2023-05-10T19:57:26;4.35;;;2.90;;
77409;SDS011;66481;51.332;22.804;2023-05-10T20:01:27;4.65;;;3.30;;
77409;SDS011;66481;51.332;22.804;2023-05-10T20:05:29;7.47;;;3.35;;
77409;SDS011;66481;51.332;22.804;2023-05-10T20:09:31;6.07;;;3.05;;
77409;SDS011;66481;51.332;22.804;2023-05-10T20:13:32;6.72;;;3.55;;
77409;SDS011;66481;51.332;22.804;2023-05-10T20:17:34;5.75;;;3.25;;
77409;SDS011;66481;51.332;22.804;2023-05-10T20:21:36;6.03;;;3.17;;
77409;SDS011;66481;51.332;22.804;2023-05-10T20:25:38;7.28;;;3.50;;
77409;SDS011;66481;51.332;22.804;2023-05-10T20:29:39;5.97;;;3.40;;
77409;SDS011;66481;51.332;22.804;2023-05-10T20:33:39;6.50;;;3.40;;
77409;SDS011;66481;51.332;22.804;2023-05-10T20:37:41;5.80;;;3.05;;
77409;SDS011;66481;51.332;22.804;2023-05-10T20:41:42;5.13;;;3.05;;
77409;SDS011;66481;51.332;22.804;2023-05-10T20:45:43;5.40;;;3.55;;
77409;SDS011;66481;51.332;22.804;2023-05-10T20:49:44;5.90;;;3.17;;
77409;SDS011;66481;51.332;22.804;2023-05-10T20:53:45;6.60;;;3.40;;
77409;SDS011;66481;51.332;22.804;2023-05-10T20:57:47;6.43;;;3.28;;
77409;SDS011;66481;51.332;22.804;2023-05-10T21:01:48;4.68;;;3.03;;
77409;SDS011;66481;51.332;22.804;2023-05-10T21:05:50;5.95;;;3.60;;
77409;SDS011;66481;51.332;22.804;2023-05-10T21:09:51;7.72;;;3.47;;
77409;SDS011;66481;51.332;22.804;2023-05-10T21:13:53;7.22;;;3.85;;
77409;SDS011;66481;51.332;22.804;2023-05-10T21:17:54;8.02;;;4.65;;
77409;SDS011;66481;51.332;22.804;2023-05-10T21:21:56;15.90;;;6.82;;
77409;SDS011;66481;51.332;22.804;2023-05-10T21:26:01;17.60;;;6.85;;
77409;SDS011;66481;51.332;22.804;2023-05-10T21:30:02;9.10;;;4.50;;
77409;SDS011;66481;51.332;22.804;2023-05-10T21:34:04;8.23;;;4.25;;
77409;SDS011;66481;51.332;22.804;2023-05-10T21:38:05;5.68;;;3.63;;
77409;SDS011;66481;51.332;22.804;2023-05-10T21:42:06;5.03;;;3.45;;
77409;SDS011;66481;51.332;22.804;2023-05-10T21:46:07;6.78;;;3.70;;
77409;SDS011;66481;51.332;22.804;2023-05-10T21:50:09;6.72;;;4.30;;
77409;SDS011;66481;51.332;22.804;2023-05-10T21:54:10;7.22;;;3.90;;
77409;SDS011;66481;51.332;22.804;2023-05-10T21:58:11;7.57;;;4.20;;
77409;SDS011;66481;51.332;22.804;2023-05-10T22:02:12;4.90;;;3.53;;
77409;SDS011;66481;51.332;22.804;2023-05-10T22:06:13;5.30;;;3.70;;
77409;SDS011;66481;51.332;22.804;2023-05-10T22:10:16;6.05;;;4.00;;
77409;SDS011;66481;51.332;22.804;2023-05-10T22:14:17;6.53;;;3.85;;
77409;SDS011;66481;51.332;22.804;2023-05-10T22:18:18;7.30;;;3.97;;
77409;SDS011;66481;51.332;22.804;2023-05-10T22:22:19;5.88;;;3.58;;
77409;SDS011;66481;51.332;22.804;2023-05-10T22:26:22;6.40;;;3.88;;
77409;SDS011;66481;51.332;22.804;2023-05-10T22:30:23;6.85;;;4.20;;
77409;SDS011;66481;51.332;22.804;2023-05-10T22:34:24;6.05;;;4.25;;
77409;SDS011;66481;51.332;22.804;2023-05-10T22:38:25;6.80;;;3.67;;
77409;SDS011;66481;51.332;22.804;2023-05-10T22:42:26;7.68;;;4.20;;
77409;SDS011;66481;51.332;22.804;2023-05-10T22:46:27;9.13;;;3.85;;
77409;SDS011;66481;51.332;22.804;2023-05-10T22:50:29;6.38;;;3.97;;
77409;SDS011;66481;51.332;22.804;2023-05-10T22:54:31;6.03;;;4.03;;
77409;SDS011;66481;51.332;22.804;2023-05-10T22:58:31;6.05;;;3.72;;
77409;SDS011;66481;51.332;22.804;2023-05-10T23:02:33;8.48;;;4.03;;
77409;SDS011;66481;51.332;22.804;2023-05-10T23:06:34;9.32;;;4.72;;
77409;SDS011;66481;51.332;22.804;2023-05-10T23:10:35;6.35;;;4.28;;
77409;SDS011;66481;51.332;22.804;2023-05-10T23:14:37;7.72;;;4.47;;
77409;SDS011;66481;51.332;22.804;2023-05-10T23:18:38;8.82;;;4.22;;
77409;SDS011;66481;51.332;22.804;2023-05-10T23:22:39;5.78;;;3.83;;
77409;SDS011;66481;51.332;22.804;2023-05-10T23:26:40;8.65;;;4.60;;
77409;SDS011;66481;51.332;22.804;2023-05-10T23:30:42;8.65;;;4.10;;
77409;SDS011;66481;51.332;22.804;2023-05-10T23:34:43;8.80;;;4.40;;
77409;SDS011;66481;51.332;22.804;2023-05-10T23:38:45;7.50;;;4.60;;
77409;SDS011;66481;51.332;22.804;2023-05-10T23:42:46;7.75;;;4.57;;
77409;SDS011;66481;51.332;22.804;2023-05-10T23:46:47;6.53;;;3.95;;
77409;SDS011;66481;51.332;22.804;2023-05-10T23:50:47;7.43;;;4.20;;
77409;SDS011;66481;51.332;22.804;2023-05-10T23:54:48;6.65;;;4.13;;
77409;SDS011;66481;51.332;22.804;2023-05-10T23:58:49;8.45;;;4.38;;
